createdAt,value
2022-09-27T00:01:10.381Z,0.30
2022-09-27T00:03:37.986Z,0.30
2022-09-27T00:06:08.266Z,0.40
2022-09-27T00:08:36.249Z,0.30
2022-09-27T00:11:06.281Z,0.30
2022-09-27T00:13:33.397Z,0.30
2022-09-27T00:16:03.248Z,0.40
2022-09-27T00:18:31.169Z,0.50
2022-09-27T00:21:08.396Z,0.40
2022-09-27T00:23:35.874Z,0.30
2022-09-27T00:26:02.908Z,0.93
2022-09-27T00:28:29.628Z,2.00
2022-09-27T00:30:57.229Z,0.52
2022-09-27T00:33:24.088Z,0.25
2022-09-27T00:35:50.777Z,0.22
2022-09-27T00:38:17.494Z,0.47
2022-09-27T00:40:44.550Z,0.40
2022-09-27T00:43:20.965Z,0.30
2022-09-27T00:45:55.469Z,0.45
2022-09-27T00:48:25.373Z,0.80
2022-09-27T00:50:54.496Z,0.70
2022-09-27T00:53:30.273Z,0.40
2022-09-27T00:56:05.350Z,0.45
2022-09-27T00:58:38.870Z,0.40
2022-09-27T01:01:10.563Z,0.30
2022-09-27T01:03:50.934Z,0.40
2022-09-27T01:06:20.608Z,0.50
2022-09-27T01:08:47.274Z,0.40
2022-09-27T01:11:24.329Z,0.40
2022-09-27T01:14:17.415Z,0.88
2022-09-27T01:17:27.456Z,0.63
2022-09-27T01:20:15.634Z,0.53
2022-09-27T01:23:20.006Z,0.50
2022-09-27T01:26:21.648Z,0.45
2022-09-27T01:28:48.402Z,0.30
2022-09-27T01:31:53.020Z,0.40
2022-09-27T01:34:29.423Z,0.40
2022-09-27T01:37:23.892Z,0.30
2022-09-27T01:40:02.550Z,0.35
2022-09-27T01:42:41.612Z,0.50
2022-09-27T01:45:47.166Z,0.32
2022-09-27T01:48:20.172Z,0.40
2022-09-27T01:50:53.027Z,0.40
2022-09-27T01:53:21.781Z,0.60
2022-09-27T01:55:50.455Z,0.55
2022-09-27T01:58:27.656Z,0.50
2022-09-27T02:00:55.353Z,0.50
2022-09-27T02:03:33.676Z,0.50
2022-09-27T02:06:05.364Z,0.50
2022-09-27T02:08:51.341Z,0.40
2022-09-27T02:11:18.104Z,0.65
2022-09-27T02:13:56.251Z,0.60
2022-09-27T02:16:51.763Z,0.50
2022-09-27T02:19:38.451Z,0.52
2022-09-27T02:22:05.464Z,0.40
2022-09-27T02:25:01.995Z,0.63
2022-09-27T02:27:50.532Z,0.43
2022-09-27T02:30:17.916Z,0.40
2022-09-27T02:32:45.122Z,0.40
2022-09-27T02:35:29.566Z,0.40
2022-09-27T02:37:57.420Z,0.32
2022-09-27T02:40:24.598Z,0.60
2022-09-27T02:42:51.828Z,0.50
2022-09-27T02:45:19.918Z,0.47
2022-09-27T02:48:16.236Z,0.50
2022-09-27T02:51:04.456Z,0.50
2022-09-27T02:54:04.434Z,0.20
2022-09-27T02:57:00.879Z,0.30
2022-09-27T02:59:53.869Z,0.30
2022-09-27T03:03:13.122Z,0.38
2022-09-27T03:05:45.619Z,0.30
2022-09-27T03:08:13.097Z,0.20
2022-09-27T03:10:39.947Z,0.20
2022-09-27T03:13:06.861Z,0.30
2022-09-27T03:15:33.508Z,0.40
2022-09-27T03:18:00.316Z,0.32
2022-09-27T03:20:26.981Z,0.20
2022-09-27T03:22:53.763Z,0.20
2022-09-27T03:25:21.416Z,0.20
2022-09-27T03:27:48.278Z,0.20
2022-09-27T03:30:16.037Z,0.20
2022-09-27T03:32:44.529Z,0.30
2022-09-27T03:35:12.672Z,0.30
2022-09-27T03:37:41.041Z,0.32
2022-09-27T03:40:08.575Z,0.20
2022-09-27T03:42:35.244Z,0.35
2022-09-27T03:45:02.106Z,0.30
2022-09-27T03:47:28.753Z,0.20
2022-09-27T03:49:55.438Z,0.30
2022-09-27T03:52:22.166Z,0.40
2022-09-27T03:54:48.920Z,0.20
2022-09-27T03:57:15.714Z,0.30
2022-09-27T03:59:42.399Z,0.57
2022-09-27T04:02:09.167Z,0.30
2022-09-27T04:04:35.921Z,0.40
2022-09-27T04:07:02.656Z,0.40
2022-09-27T04:09:29.363Z,0.50
2022-09-27T04:11:56.068Z,0.30
2022-09-27T04:14:22.752Z,0.35
2022-09-27T04:16:49.495Z,0.40
2022-09-27T04:19:16.324Z,0.30
2022-09-27T04:21:43.166Z,0.30
2022-09-27T04:24:11.834Z,0.50
2022-09-27T04:26:40.001Z,0.35
2022-09-27T04:29:08.459Z,0.50
2022-09-27T04:31:36.061Z,0.30
2022-09-27T04:34:03.010Z,0.30
2022-09-27T04:36:29.713Z,0.60
2022-09-27T04:39:01.441Z,0.50
2022-09-27T04:41:29.053Z,0.30
2022-09-27T04:43:59.337Z,0.40
2022-09-27T04:46:28.975Z,0.33
2022-09-27T04:48:55.683Z,0.20
2022-09-27T04:51:22.376Z,0.35
2022-09-27T04:53:49.061Z,0.40
2022-09-27T04:56:16.050Z,0.30
2022-09-27T04:58:43.016Z,0.40
2022-09-27T05:01:10.205Z,0.50
2022-09-27T05:03:37.204Z,0.30
2022-09-27T05:06:04.157Z,0.65
2022-09-27T05:08:30.902Z,0.40
2022-09-27T05:10:57.571Z,0.30
2022-09-27T05:13:24.310Z,0.28
2022-09-27T05:15:52.181Z,0.38
2022-09-27T05:18:19.072Z,0.65
2022-09-27T05:20:46.130Z,0.40
2022-09-27T05:23:12.912Z,0.40
2022-09-27T05:25:39.705Z,0.30
2022-09-27T05:28:06.537Z,0.40
2022-09-27T05:30:33.364Z,0.45
2022-09-27T05:33:00.136Z,0.35
2022-09-27T05:35:27.485Z,0.30
2022-09-27T05:38:00.007Z,1.27
2022-09-27T05:40:40.971Z,0.50
2022-09-27T05:43:09.744Z,0.65
2022-09-27T05:45:37.348Z,0.60
2022-09-27T05:48:05.311Z,0.40
2022-09-27T05:50:32.649Z,0.50
2022-09-27T05:52:59.384Z,0.40
2022-09-27T05:55:26.120Z,0.70
2022-09-27T05:57:57.322Z,0.50
2022-09-27T06:00:25.833Z,0.57
2022-09-27T06:02:57.655Z,0.40
2022-09-27T06:05:26.133Z,0.25
2022-09-27T06:07:57.963Z,0.57
2022-09-27T06:10:24.838Z,0.50
2022-09-27T06:12:52.364Z,0.50
2022-09-27T06:15:19.860Z,0.60
2022-09-27T06:17:46.844Z,0.60
2022-09-27T06:20:13.585Z,0.60
2022-09-27T06:22:41.122Z,0.40
2022-09-27T06:25:09.653Z,0.20
2022-09-27T06:27:36.334Z,0.63
2022-09-27T06:30:03.896Z,0.40
2022-09-27T06:32:30.755Z,1.50
2022-09-27T06:34:57.545Z,0.98
2022-09-27T06:37:27.644Z,1.00
2022-09-27T06:39:55.934Z,1.85
2022-09-27T06:42:22.715Z,1.60
2022-09-27T06:44:50.407Z,1.17
2022-09-27T06:47:17.777Z,1.80
2022-09-27T06:49:44.504Z,2.50
2022-09-27T06:52:12.394Z,1.25
2022-09-27T06:54:39.065Z,1.83
2022-09-27T06:57:05.857Z,1.40
2022-09-27T07:00:10.983Z,1.73
2022-09-27T07:02:40.989Z,1.63
2022-09-27T07:05:10.474Z,1.40
2022-09-27T07:07:37.182Z,1.00
2022-09-27T07:10:08.990Z,1.50
2022-09-27T07:12:37.379Z,1.80
2022-09-27T07:15:05.109Z,1.40
2022-09-27T07:17:32.145Z,0.40
2022-09-27T07:19:58.806Z,0.68
2022-09-27T07:22:25.480Z,0.90
2022-09-27T07:24:52.192Z,1.10
2022-09-27T07:27:18.841Z,0.77
2022-09-27T07:29:45.754Z,0.50
2022-09-27T07:32:12.469Z,0.77
2022-09-27T07:34:39.224Z,0.70
2022-09-27T07:37:05.949Z,0.35
2022-09-27T07:39:32.646Z,0.40
2022-09-27T07:41:59.402Z,0.75
2022-09-27T07:44:27.094Z,0.38
2022-09-27T07:46:53.778Z,0.40
2022-09-27T07:49:20.427Z,0.43
2022-09-27T07:51:47.106Z,0.77
2022-09-27T07:54:13.809Z,0.28
2022-09-27T07:56:40.685Z,0.30
2022-09-27T07:59:07.319Z,0.15
2022-09-27T08:01:34.685Z,0.30
2022-09-27T08:04:01.643Z,0.10
2022-09-27T08:06:29.433Z,0.20
2022-09-27T08:08:56.166Z,0.30
2022-09-27T08:11:22.881Z,0.25
2022-09-27T08:13:52.400Z,0.22
2022-09-27T08:16:19.164Z,0.30
2022-09-27T08:18:45.875Z,0.30
2022-09-27T08:21:12.606Z,0.25
2022-09-27T08:23:39.313Z,0.20
2022-09-27T08:26:06.412Z,0.30
2022-09-27T08:28:33.385Z,0.20
2022-09-27T08:31:00.440Z,0.40
2022-09-27T08:33:31.919Z,0.35
2022-09-27T08:36:00.277Z,0.20
2022-09-27T08:38:26.990Z,0.30
2022-09-27T08:41:21.113Z,0.20
2022-09-27T08:44:00.575Z,0.13
2022-09-27T08:46:53.843Z,0.30
2022-09-27T08:49:32.555Z,0.30
2022-09-27T08:52:00.906Z,0.30
2022-09-27T08:54:32.610Z,0.20
2022-09-27T08:57:06.539Z,0.20
2022-09-27T08:59:41.933Z,0.20
2022-09-27T09:02:19.250Z,0.30
2022-09-27T09:04:48.876Z,0.38
2022-09-27T09:07:37.722Z,0.97
2022-09-27T09:10:49.211Z,1.00
2022-09-27T09:13:30.792Z,0.90
2022-09-27T09:16:15.977Z,0.60
2022-09-27T09:19:04.134Z,1.08
2022-09-27T09:21:46.258Z,1.60
2022-09-27T09:24:31.493Z,0.98
2022-09-27T09:27:08.608Z,1.30
2022-09-27T09:30:02.333Z,1.30
2022-09-27T09:32:49.269Z,0.95
2022-09-27T09:35:24.853Z,0.80
2022-09-27T09:37:56.083Z,0.30
2022-09-27T09:40:42.605Z,0.20
2022-09-27T09:43:28.097Z,0.30
2022-09-27T09:46:03.394Z,0.30
2022-09-27T09:48:50.429Z,0.43
2022-09-27T09:51:22.608Z,0.30
2022-09-27T09:53:55.998Z,0.50
2022-09-27T09:56:27.991Z,0.68
2022-09-27T09:59:02.566Z,0.55
2022-09-27T10:01:43.078Z,0.37
2022-09-27T10:04:20.230Z,0.50
2022-09-27T10:06:48.157Z,0.50
2022-09-27T10:09:16.734Z,0.60
2022-09-27T10:11:48.041Z,0.40
2022-09-27T10:14:16.692Z,0.50
2022-09-27T10:16:50.425Z,0.80
2022-09-27T10:19:26.334Z,0.90
2022-09-27T10:21:53.854Z,0.90
2022-09-27T10:24:20.829Z,0.60
2022-09-27T10:26:49.646Z,0.40
2022-09-27T10:29:34.888Z,0.60
2022-09-27T10:32:11.943Z,0.90
2022-09-27T10:34:41.877Z,0.70
2022-09-27T10:37:18.092Z,1.73
2022-09-27T10:39:47.106Z,0.30
2022-09-27T10:42:23.800Z,0.60
2022-09-27T10:44:50.464Z,0.40
2022-09-27T10:47:23.870Z,0.50
2022-09-27T10:49:53.752Z,1.15
2022-09-27T10:52:24.073Z,0.57
2022-09-27T10:54:57.926Z,0.65
2022-09-27T10:57:30.130Z,1.80
2022-09-27T10:59:59.740Z,1.35
2022-09-27T11:02:36.091Z,1.23
2022-09-27T11:05:23.637Z,0.70
2022-09-27T11:07:53.539Z,0.50
2022-09-27T11:10:37.013Z,0.90
2022-09-27T11:13:20.503Z,0.90
2022-09-27T11:15:57.297Z,1.20
2022-09-27T11:18:44.955Z,1.50
2022-09-27T11:21:45.766Z,2.20
2022-09-27T11:24:27.305Z,1.00
2022-09-27T11:27:21.796Z,1.30
2022-09-27T11:30:29.439Z,0.63
2022-09-27T11:33:31.166Z,1.20
2022-09-27T11:36:26.276Z,0.52
2022-09-27T11:39:04.795Z,0.77
2022-09-27T11:42:02.760Z,0.52
2022-09-27T11:44:44.332Z,0.82
2022-09-27T11:47:34.098Z,1.00
2022-09-27T11:50:22.505Z,1.00
2022-09-27T11:53:17.993Z,0.70
2022-09-27T11:56:03.993Z,1.00
2022-09-27T11:58:42.827Z,0.70
2022-09-27T12:01:50.222Z,0.30
2022-09-27T12:04:30.658Z,0.40
2022-09-27T12:07:25.023Z,0.40
2022-09-27T12:09:57.175Z,0.40
2022-09-27T12:12:34.079Z,0.50
2022-09-27T12:15:07.156Z,0.40
2022-09-27T12:17:46.727Z,0.50
2022-09-27T12:20:27.135Z,1.00
2022-09-27T12:23:36.416Z,1.27
2022-09-27T12:26:28.395Z,0.40
2022-09-27T12:29:02.439Z,0.40
2022-09-27T12:31:43.019Z,0.43
2022-09-27T12:34:28.172Z,0.40
2022-09-27T12:37:12.672Z,0.30
2022-09-27T12:40:00.774Z,0.50
2022-09-27T12:42:36.954Z,0.27
2022-09-27T12:45:04.020Z,0.40
2022-09-27T12:47:30.649Z,0.43
2022-09-27T12:50:30.237Z,0.50
2022-09-27T12:53:31.647Z,0.60
2022-09-27T12:56:32.440Z,0.60
2022-09-27T12:59:17.866Z,0.50
2022-09-27T13:01:58.748Z,0.50
2022-09-27T13:04:37.772Z,0.75
2022-09-27T13:07:11.235Z,0.60
2022-09-27T13:09:40.710Z,0.43
2022-09-27T13:12:16.277Z,0.60
2022-09-27T13:15:06.726Z,0.50
2022-09-27T13:17:44.206Z,0.70
2022-09-27T13:20:38.452Z,0.90
2022-09-27T13:23:20.447Z,1.00
2022-09-27T13:25:56.243Z,0.80
2022-09-27T13:28:32.051Z,1.02
2022-09-27T13:31:07.463Z,0.70
2022-09-27T13:33:47.791Z,0.88
2022-09-27T13:36:19.265Z,0.67
2022-09-27T13:39:25.777Z,0.80
2022-09-27T13:42:04.754Z,0.85
2022-09-27T13:45:01.335Z,0.60
2022-09-27T13:47:37.599Z,0.70
2022-09-27T13:50:35.327Z,0.80
2022-09-27T13:53:26.257Z,0.80
2022-09-27T13:55:54.309Z,0.70
2022-09-27T13:58:30.334Z,0.60
2022-09-27T14:01:01.371Z,0.82
2022-09-27T14:03:35.841Z,0.70
2022-09-27T14:06:08.719Z,0.50
2022-09-27T14:08:59.371Z,0.65
2022-09-27T14:11:36.092Z,0.60
2022-09-27T14:14:04.773Z,0.60
2022-09-27T14:16:35.827Z,0.60
2022-09-27T14:19:03.604Z,0.60
2022-09-27T14:21:39.217Z,0.77
2022-09-27T14:24:26.583Z,0.82
2022-09-27T14:27:20.205Z,0.70
2022-09-27T14:29:48.742Z,0.90
2022-09-27T14:32:21.904Z,0.70
2022-09-27T14:35:03.168Z,0.57
2022-09-27T14:37:30.293Z,0.75
2022-09-27T14:40:09.558Z,0.82
2022-09-27T14:42:37.690Z,0.80
2022-09-27T14:45:24.893Z,0.70
2022-09-27T14:47:52.024Z,0.63
2022-09-27T14:50:24.469Z,0.93
2022-09-27T14:52:56.466Z,0.70
2022-09-27T14:55:29.382Z,0.63
2022-09-27T14:57:59.721Z,0.80
2022-09-27T15:00:33.930Z,0.88
2022-09-27T15:03:04.852Z,0.70
2022-09-27T15:05:34.152Z,0.60
2022-09-27T15:08:04.461Z,0.60
2022-09-27T15:10:34.847Z,0.50
2022-09-27T15:13:04.073Z,0.50
2022-09-27T15:15:39.892Z,0.50
2022-09-27T15:18:32.239Z,0.60
2022-09-27T15:20:59.872Z,0.70
2022-09-27T15:23:29.258Z,0.57
2022-09-27T15:26:17.021Z,0.70
2022-09-27T15:28:46.486Z,0.63
2022-09-27T15:31:13.684Z,0.80
2022-09-27T15:33:42.353Z,0.70
2022-09-27T15:36:11.357Z,0.70
2022-09-27T15:38:47.286Z,0.70
2022-09-27T15:41:16.210Z,0.93
2022-09-27T15:43:48.608Z,0.80
2022-09-27T15:46:38.894Z,1.13
2022-09-27T15:49:17.975Z,1.08
2022-09-27T15:51:49.876Z,0.80
2022-09-27T15:54:20.834Z,0.70
2022-09-27T15:56:55.262Z,0.90
2022-09-27T15:59:27.638Z,0.80
2022-09-27T16:02:01.181Z,0.80
2022-09-27T16:08:19.082Z,0.80
2022-09-27T16:10:52.594Z,1.00
2022-09-27T16:13:19.330Z,0.93
2022-09-27T16:15:48.964Z,1.20
2022-09-27T16:18:17.487Z,1.27
2022-09-27T16:20:44.699Z,1.30
2022-09-27T16:23:11.589Z,1.40
2022-09-27T16:25:38.272Z,1.30
2022-09-27T16:28:05.512Z,1.17
2022-09-27T16:30:35.193Z,1.10
2022-09-27T16:33:01.913Z,1.30
2022-09-27T16:35:28.678Z,1.30
2022-09-27T16:37:55.649Z,1.17
2022-09-27T16:40:22.613Z,1.20
2022-09-27T16:42:49.747Z,1.30
2022-09-27T16:45:19.894Z,1.70
2022-09-27T16:47:48.443Z,1.48
2022-09-27T16:50:34.681Z,1.40
2022-09-27T16:53:01.757Z,1.50
2022-09-27T16:55:29.371Z,1.63
2022-09-27T16:57:59.526Z,1.77
2022-09-27T17:00:27.063Z,1.65
2022-09-27T17:02:54.655Z,1.63
2022-09-27T17:05:22.781Z,1.17
2022-09-27T17:07:53.545Z,1.38
2022-09-27T17:10:22.076Z,1.50
2022-09-27T17:12:49.012Z,1.20
2022-09-27T17:15:16.559Z,1.50
2022-09-27T17:17:45.274Z,1.27
2022-09-27T17:20:12.668Z,1.20
2022-09-27T17:22:39.328Z,1.10
2022-09-27T17:25:06.556Z,1.23
2022-09-27T17:27:33.212Z,1.10
2022-09-27T17:29:59.916Z,1.20
2022-09-27T17:32:26.690Z,1.30
2022-09-27T17:34:54.221Z,1.58
2022-09-27T17:37:20.887Z,1.90
2022-09-27T17:39:47.634Z,1.77
2022-09-27T17:42:14.374Z,1.45
2022-09-27T17:44:41.137Z,1.90
2022-09-27T17:47:26.248Z,2.10
2022-09-27T17:50:11.805Z,2.50
2022-09-27T17:52:40.609Z,1.83
2022-09-27T17:55:07.631Z,2.10
2022-09-27T17:57:34.465Z,2.20
2022-09-27T18:00:02.543Z,2.20
2022-09-27T18:02:29.263Z,2.00
2022-09-27T18:04:56.049Z,2.43
2022-09-27T18:07:22.747Z,2.08
2022-09-27T18:09:51.102Z,2.30
2022-09-27T18:12:18.013Z,2.30
2022-09-27T18:14:45.819Z,2.25
2022-09-27T18:17:13.074Z,2.40
2022-09-27T18:19:40.246Z,2.10
2022-09-27T18:22:07.307Z,2.10
2022-09-27T18:24:33.961Z,2.60
2022-09-27T18:27:00.974Z,2.50
2022-09-27T18:29:28.728Z,2.40
2022-09-27T18:31:55.777Z,2.38
2022-09-27T18:34:25.056Z,2.00
2022-09-27T18:36:51.785Z,2.67
2022-09-27T18:39:19.580Z,2.58
2022-09-27T18:41:49.167Z,2.30
2022-09-27T18:44:17.789Z,2.28
2022-09-27T18:46:46.037Z,2.45
2022-09-27T18:49:14.560Z,4.07
2022-09-27T18:51:44.730Z,4.18
2022-09-27T18:54:19.143Z,3.37
2022-09-27T18:56:47.779Z,2.45
2022-09-27T18:59:15.718Z,2.65
2022-09-27T19:01:45.456Z,2.10
2022-09-27T19:04:21.615Z,2.17
2022-09-27T19:06:50.925Z,1.57
2022-09-27T19:09:18.077Z,1.85
2022-09-27T19:11:44.844Z,2.65
2022-09-27T19:14:16.677Z,2.65
2022-09-27T19:16:44.794Z,2.30
2022-09-27T19:19:11.459Z,1.90
2022-09-27T19:21:38.225Z,2.10
2022-09-27T19:24:05.094Z,2.10
2022-09-27T19:26:31.922Z,2.28
2022-09-27T19:28:58.903Z,2.20
2022-09-27T19:31:29.212Z,1.80
2022-09-27T19:33:59.964Z,1.38
2022-09-27T19:36:27.850Z,2.10
2022-09-27T19:38:56.403Z,2.38
2022-09-27T19:41:23.474Z,2.60
2022-09-27T19:43:51.886Z,2.33
2022-09-27T19:46:19.705Z,3.42
2022-09-27T19:48:47.776Z,2.35
2022-09-27T19:51:17.008Z,2.85
2022-09-27T19:53:43.834Z,3.75
2022-09-27T19:56:11.745Z,3.83
2022-09-27T19:58:40.188Z,3.67
2022-09-27T20:01:14.765Z,3.65
2022-09-27T20:03:44.080Z,4.20
2022-09-27T20:06:14.963Z,3.55
2022-09-27T20:08:42.879Z,3.53
2022-09-27T20:11:12.475Z,3.60
2022-09-27T20:13:40.290Z,4.22
2022-09-27T20:16:09.788Z,4.05
2022-09-27T20:18:41.741Z,4.20
2022-09-27T20:21:08.609Z,3.80
2022-09-27T20:23:36.207Z,3.75
2022-09-27T20:26:10.710Z,3.95
2022-09-27T20:28:43.109Z,4.20
2022-09-27T20:31:11.373Z,4.35
2022-09-27T20:33:44.702Z,5.00
2022-09-27T20:36:15.073Z,3.83
2022-09-27T20:38:43.352Z,3.70
2022-09-27T20:41:11.261Z,4.05
2022-09-27T20:43:38.795Z,4.80
2022-09-27T20:46:17.414Z,4.50
2022-09-27T20:48:45.544Z,4.35
2022-09-27T20:51:17.155Z,3.78
2022-09-27T20:53:49.065Z,3.78
2022-09-27T20:56:16.965Z,3.53
2022-09-27T20:58:43.826Z,3.50
2022-09-27T21:01:10.794Z,3.25
2022-09-27T21:03:37.566Z,3.38
2022-09-27T21:06:05.104Z,3.20
2022-09-27T21:08:34.052Z,2.97
2022-09-27T21:11:06.635Z,2.23
2022-09-27T21:13:33.592Z,2.67
2022-09-27T21:16:04.901Z,2.28
2022-09-27T21:18:31.663Z,2.20
2022-09-27T21:21:04.605Z,2.05
2022-09-27T21:23:32.949Z,1.50
2022-09-27T21:26:07.123Z,1.50
2022-09-27T21:28:54.751Z,2.00
2022-09-27T21:31:24.076Z,1.60
2022-09-27T21:33:58.464Z,1.20
2022-09-27T21:36:27.943Z,0.77
2022-09-27T21:38:55.302Z,0.65
2022-09-27T21:41:22.705Z,0.50
2022-09-27T21:43:50.002Z,0.75
2022-09-27T21:46:22.589Z,0.30
2022-09-27T21:48:52.009Z,0.40
2022-09-27T21:51:21.384Z,0.65
2022-09-27T21:53:54.335Z,0.40
2022-09-27T21:56:22.320Z,0.40
2022-09-27T21:58:49.679Z,0.30
2022-09-27T22:01:18.614Z,0.40
2022-09-27T22:03:46.499Z,0.30
2022-09-27T22:06:17.077Z,0.30
2022-09-27T22:08:44.211Z,0.55
2022-09-27T22:11:14.341Z,0.50
2022-09-27T22:13:41.384Z,0.40
2022-09-27T22:16:11.467Z,0.43
2022-09-27T22:18:39.032Z,0.57
2022-09-27T22:21:08.227Z,0.40
2022-09-27T22:23:35.679Z,0.80
2022-09-27T22:26:17.252Z,0.40
2022-09-27T22:28:45.359Z,0.50
2022-09-27T22:31:15.299Z,0.47
2022-09-27T22:33:42.814Z,0.50
2022-09-27T22:36:09.567Z,0.32
2022-09-27T22:38:36.239Z,0.53
2022-09-27T22:41:03.302Z,0.32
2022-09-27T22:43:30.093Z,0.30
2022-09-27T22:46:02.202Z,0.60
2022-09-27T22:48:30.670Z,0.57
2022-09-27T22:50:59.636Z,0.40
2022-09-27T22:53:28.751Z,0.40
2022-09-27T22:56:17.589Z,0.60
2022-09-27T22:58:47.156Z,0.40
2022-09-27T23:01:17.156Z,0.40
2022-09-27T23:03:45.539Z,0.50
2022-09-27T23:06:12.947Z,0.40
2022-09-27T23:08:40.318Z,0.50
2022-09-27T23:11:09.792Z,0.50
2022-09-27T23:13:38.831Z,0.40
2022-09-27T23:16:11.494Z,0.30
2022-09-27T23:18:38.665Z,0.40
2022-09-27T23:21:12.104Z,0.43
2022-09-27T23:23:41.532Z,0.50
2022-09-27T23:26:10.869Z,0.47
2022-09-27T23:28:38.707Z,0.60
2022-09-27T23:31:16.738Z,0.50
2022-09-27T23:33:46.310Z,0.43
2022-09-27T23:36:15.167Z,0.35
2022-09-27T23:38:43.399Z,0.38
2022-09-27T23:41:10.053Z,0.30
2022-09-27T23:43:36.853Z,0.50
2022-09-27T23:46:05.012Z,0.60
2022-09-27T23:48:31.880Z,0.50
2022-09-27T23:50:58.544Z,0.52
2022-09-27T23:53:25.441Z,0.90
2022-09-27T23:56:02.763Z,0.50
2022-09-27T23:58:33.719Z,0.50
